• Join FlightAware (Why Join?)
  • Login
  • US Flag 
09:18PM EDT


 

Airport Tracker/Info


-or-


 

Live Flight TrackerFlight Track Log ✈ GJS6221 ✈ 03-May-2013 ✈ KLGA - KBTV

Flight Track Log - Related Links

Times and Time Zones

All times are in EDT time to prevent confusion due to time zone crossing. See the GJS6221 flight status page for this flight to view local times or setup timezone preferences in your user account.

Time Position Orientation Groundspeed Altitude Reporting Facility
EDT Latitude Longitude Course Direction KTS MPH feet Rate Location/Type
01:06PM 40.7500 -73.8500 51° Northeast 156 180 1,900  Level New York TRACON
01:07PM 40.7333 -73.8000 114° Southeast 218 251 4,400 2,880 Climbing New York TRACON
01:08PM 40.7833 -73.7667 27° Northeast 220 253 7,700 2,700 Climbing New York TRACON
01:09PM 40.8667 -73.7500 North 272 313 9,900 2,100 Climbing New York TRACON
01:10PM 40.9333 -73.7000 30° Northeast 306 352 11,900 2,040 Climbing New York TRACON
01:11PM 41.5278 -73.2371 51° Northeast  Level FlightAware Approximate
01:12PM 41.1128 -73.5833 26° Northeast 353 406 16,400  Level Boston Center
01:13PM 41.2031 -73.5161 29° Northeast 361 415 18,100 1,560 Climbing Boston Center
01:14PM 41.2914 -73.4539 28° Northeast 381 438 19,600 1,860 Climbing Boston Center
01:15PM 41.3814 -73.3861 29° Northeast 381 438 21,900 1,740 Climbing Boston Center
01:16PM 41.4758 -73.3156 29° Northeast 375 432 23,100 1,200 Climbing Boston Center
01:17PM 41.5619 -73.2086 43° Northeast 375 432 24,400 1,260 Climbing Boston Center
01:18PM 41.6503 -73.1153 38° Northeast 380 437 25,700 1,200 Climbing Boston Center
01:19PM 41.7647 -73.1303 354° North 367 422 26,900 600 Climbing Boston Center
01:20PM 41.8564 -73.1453 353° North 385 443 27,000  Climbing Boston Center
01:21PM 41.9894 -73.1719 352° North 385 443 27,000  Level Boston Center
01:22PM 42.1042 -73.1900 353° North 399 459 27,000  Level Boston Center
01:23PM 42.2186 -73.2111 352° North 411 473 27,000  Level Boston Center
01:24PM 42.3331 -73.2322 352° North 411 473 27,000  Level Boston Center
01:25PM 42.4392 -73.2361 358° North 416 479 27,000  Level Boston Center
01:26PM 42.5539 -73.2547 353° North 416 479 27,000  Level Boston Center
01:27PM 42.6786 -73.2931 347° North 421 484 27,000  Level Boston Center
01:28PM 42.7806 -73.3086 354° North 416 479 27,000  Level Boston Center
01:29PM 42.8950 -73.3300 352° North 416 479 27,000 -120 Level Boston Center
01:30PM 43.0117 -73.3458 354° North 416 479 26,800 -1,320 Descending Boston Center
01:31PM 43.1264 -73.3333 North 406 467 24,400 -1,440 Descending Boston Center
01:32PM 43.2119 -73.3203 North 400 460 24,000 -240 Descending Boston Center
01:33PM 43.3453 -73.3022 North 400 460 24,000 -60 Level Boston Center
01:34PM 43.4644 -73.2839 North 394 453 23,900 -1,320 Descending Boston Center
01:35PM 43.5686 -73.2711 North 389 448 21,400 -2,460 Descending Boston Center
01:36PM 43.6750 -73.2583 North 384 442 18,600 -2,520 Descending Boston Center
01:37PM 43.7917 -73.2425 North 363 418 15,900 -2,700 Descending Boston Center
01:38PM 43.8836 -73.2322 North 363 418 13,300 -2,400 Descending Boston Center
01:39PM 43.9733 -73.2189 North 340 391 11,200 -1,980 Descending Boston Center
01:40PM 44.0483 -73.2114 North 307 353 9,400 -2,040 Descending Boston Center
01:41PM 44.1317 -73.2008 North 278 320 7,200 -1,800 Descending Boston Center
01:42PM 44.2047 -73.1756 14° North 273 314 5,800 -1,440 Descending Boston Center
01:43PM 44.2675 -73.1417 21° North 248 285 4,400 -900 Descending Boston Center
01:44PM 44.3261 -73.1103 21° North 234 269 4,000 -540 Descending Boston Center
01:45PM 44.3700 -73.0878 20° North 214 246 3,400 -840 Descending Boston Center
01:46PM 44.4219 -73.0767 North 176 203 2,400 -1,200 Descending Boston Center
01:47PM 44.4469 -73.1147 313° West 122 140 1,000 4,260 Descending Boston Center
01:48PM 44.4694 -73.1528 North 122 140 11,000 4,980 Climbing Boston Center
01:49PM 44.4667 -73.1500 North  Level FlightAware Approximate
01:49PM 44.4736 -73.1617 303° West 92 106 11,000  Level Boston Center
01:50PM 44.4717 -73.1586 132° Southeast 32 37 11,000  Level Boston Center
01:51PM 44.4736 -73.1675 287° West 16 18 11,000  Level Boston Center
01:52PM 44.4736 -73.1731 270° West 16 18 11,000  Level Boston Center